createdAt,value
2019-03-17T00:02:34.967Z,9.90
2019-03-17T00:05:15.872Z,10.00
2019-03-17T00:07:56.911Z,9.90
2019-03-17T00:10:37.268Z,10.00
2019-03-17T00:13:18.625Z,10.00
2019-03-17T00:16:00.192Z,10.00
2019-03-17T00:18:41.392Z,10.10
2019-03-17T00:21:22.027Z,10.10
2019-03-17T00:24:02.606Z,10.20
2019-03-17T00:26:43.834Z,10.20
2019-03-17T00:29:24.724Z,10.30
2019-03-17T00:32:05.291Z,10.30
2019-03-17T00:34:46.034Z,10.30
2019-03-17T00:37:26.752Z,10.30
2019-03-17T00:40:07.958Z,10.30
2019-03-17T00:42:48.965Z,10.40
2019-03-17T00:45:29.651Z,10.30
2019-03-17T00:48:10.480Z,10.40
2019-03-17T00:50:51.113Z,10.30
2019-03-17T00:53:32.065Z,10.30
2019-03-17T00:56:01.150Z,10.30
2019-03-17T00:58:49.631Z,10.30
2019-03-17T01:01:37.839Z,10.20
2019-03-17T01:04:26.454Z,10.20
2019-03-17T01:07:14.639Z,10.20
2019-03-17T01:10:02.846Z,10.20
2019-03-17T01:12:51.101Z,10.10
2019-03-17T01:15:39.610Z,10.20
2019-03-17T01:18:27.810Z,10.20
2019-03-17T01:21:16.311Z,10.20
2019-03-17T01:24:04.516Z,10.30
2019-03-17T01:26:52.995Z,10.20
2019-03-17T01:29:41.209Z,10.10
2019-03-17T01:32:30.106Z,10.20
2019-03-17T01:35:18.662Z,10.20
2019-03-17T01:38:07.203Z,10.20
2019-03-17T01:40:55.780Z,10.20
2019-03-17T01:43:44.242Z,10.20
2019-03-17T01:46:32.443Z,10.10
2019-03-17T01:49:20.903Z,10.10
2019-03-17T01:52:09.121Z,10.10
2019-03-17T01:54:57.332Z,10.10
2019-03-17T01:57:45.535Z,10.10
2019-03-17T02:00:33.805Z,10.10
2019-03-17T02:03:22.017Z,10.10
2019-03-17T02:06:10.211Z,10.10
2019-03-17T02:08:58.479Z,10.20
2019-03-17T02:11:47.144Z,10.20
2019-03-17T02:17:29.597Z,10.20
2019-03-17T02:20:17.803Z,10.20
2019-03-17T02:23:06.007Z,10.10
2019-03-17T02:25:54.197Z,10.20
2019-03-17T02:28:42.394Z,10.20
2019-03-17T02:31:30.904Z,10.30
2019-03-17T02:34:00.301Z,10.30
2019-03-17T02:36:29.379Z,10.30
2019-03-17T02:39:17.675Z,10.40
2019-03-17T02:42:05.861Z,10.40
2019-03-17T02:44:54.089Z,10.30
2019-03-17T02:47:42.631Z,10.40
2019-03-17T02:50:30.849Z,10.30
2019-03-17T02:53:19.071Z,10.30
2019-03-17T02:56:07.392Z,10.40
2019-03-17T02:58:55.602Z,10.30
2019-03-17T03:01:43.791Z,10.30
2019-03-17T03:04:32.007Z,10.30
2019-03-17T03:07:20.199Z,10.30
2019-03-17T03:10:08.508Z,10.40
2019-03-17T03:12:57.024Z,10.30
2019-03-17T03:15:45.318Z,10.30
2019-03-17T03:18:26.467Z,10.30
2019-03-17T03:21:06.952Z,10.30
2019-03-17T03:23:47.775Z,10.30
2019-03-17T03:26:28.745Z,10.20
2019-03-17T03:29:09.729Z,10.20
2019-03-17T03:31:50.831Z,10.20
2019-03-17T03:34:31.613Z,10.20
2019-03-17T03:37:12.994Z,10.20
2019-03-17T03:39:53.405Z,10.20
2019-03-17T03:42:34.428Z,10.20
2019-03-17T03:45:15.261Z,10.10
2019-03-17T03:47:56.098Z,10.00
2019-03-17T03:50:36.908Z,10.00
2019-03-17T03:53:17.709Z,9.90
2019-03-17T03:55:58.659Z,10.00
2019-03-17T03:58:39.556Z,10.10
2019-03-17T04:01:20.730Z,10.00
2019-03-17T04:04:02.047Z,10.10
2019-03-17T04:06:42.871Z,10.00
2019-03-17T04:09:23.609Z,10.00
2019-03-17T04:12:03.997Z,10.00
2019-03-17T04:14:45.160Z,10.00
2019-03-17T04:17:26.159Z,10.00
2019-03-17T04:20:07.343Z,10.00
2019-03-17T04:22:48.602Z,10.00
2019-03-17T04:25:29.435Z,9.90
2019-03-17T04:28:10.734Z,9.90
2019-03-17T04:30:51.596Z,9.90
2019-03-17T04:33:32.444Z,9.80
2019-03-17T04:36:13.338Z,9.90
2019-03-17T04:38:53.993Z,9.90
2019-03-17T04:41:34.707Z,9.90
2019-03-17T04:44:20.867Z,9.90
2019-03-17T04:46:58.088Z,9.90
2019-03-17T04:49:39.057Z,9.80
2019-03-17T04:52:19.971Z,9.80
2019-03-17T04:55:00.958Z,9.90
2019-03-17T04:57:41.776Z,9.80
2019-03-17T05:00:22.901Z,9.80
2019-03-17T05:03:03.652Z,9.90
2019-03-17T05:05:45.123Z,9.90
2019-03-17T05:08:25.737Z,9.90
2019-03-17T05:11:06.682Z,9.90
2019-03-17T05:13:47.674Z,9.90
2019-03-17T05:16:28.643Z,9.90
2019-03-17T05:19:09.408Z,9.90
2019-03-17T05:21:50.200Z,9.90
2019-03-17T05:24:30.998Z,10.00
2019-03-17T05:27:12.337Z,9.90
2019-03-17T05:29:53.312Z,10.00
2019-03-17T05:32:34.052Z,10.00
2019-03-17T05:35:15.060Z,10.00
2019-03-17T05:37:55.807Z,10.00
2019-03-17T05:40:36.562Z,10.10
2019-03-17T05:43:17.535Z,10.10
2019-03-17T05:45:58.328Z,10.10
2019-03-17T05:48:39.094Z,10.10
2019-03-17T05:51:19.843Z,10.10
2019-03-17T05:54:00.908Z,10.20
2019-03-17T05:56:41.580Z,10.20
2019-03-17T05:59:22.588Z,10.20
2019-03-17T06:02:03.100Z,10.20
2019-03-17T06:04:43.977Z,10.30
2019-03-17T06:07:25.012Z,10.30
2019-03-17T06:10:05.948Z,10.30
2019-03-17T06:12:46.991Z,10.30
2019-03-17T06:15:28.152Z,10.30
2019-03-17T06:18:09.119Z,10.40
2019-03-17T06:20:50.297Z,10.50
2019-03-17T06:23:30.868Z,10.50
2019-03-17T06:26:11.783Z,10.60
2019-03-17T06:28:52.582Z,10.60
2019-03-17T06:31:33.594Z,10.70
2019-03-17T06:34:14.332Z,10.70
2019-03-17T06:36:55.403Z,10.70
2019-03-17T06:39:36.259Z,10.70
2019-03-17T06:42:17.242Z,10.60
2019-03-17T06:44:57.699Z,10.70
2019-03-17T06:47:38.391Z,10.70
2019-03-17T06:50:19.455Z,10.70
2019-03-17T06:53:00.782Z,10.70
2019-03-17T06:55:41.741Z,10.70
2019-03-17T06:58:22.435Z,10.60
2019-03-17T07:01:03.255Z,10.70
2019-03-17T07:03:44.005Z,10.70
2019-03-17T07:06:24.627Z,10.70
2019-03-17T07:09:05.439Z,10.70
2019-03-17T07:11:46.276Z,10.60
2019-03-17T07:14:26.826Z,10.60
2019-03-17T07:17:07.686Z,10.60
2019-03-17T07:19:48.763Z,10.60
2019-03-17T07:22:29.300Z,10.60
2019-03-17T07:25:10.451Z,10.70
2019-03-17T07:27:51.385Z,10.70
2019-03-17T07:30:32.163Z,10.70
2019-03-17T07:33:12.995Z,10.70
2019-03-17T07:35:53.599Z,10.80
2019-03-17T07:38:34.932Z,10.90
2019-03-17T07:41:15.701Z,11.10
2019-03-17T07:43:56.703Z,11.30
2019-03-17T07:46:38.392Z,11.60
2019-03-17T07:49:19.315Z,11.90
2019-03-17T07:52:03.103Z,12.20
2019-03-17T07:54:43.581Z,12.10
2019-03-17T07:57:24.479Z,11.80
2019-03-17T08:00:05.575Z,11.50
2019-03-17T08:02:46.544Z,11.50
2019-03-17T08:05:27.273Z,11.30
2019-03-17T08:08:09.620Z,11.20
2019-03-17T08:10:50.303Z,11.20
2019-03-17T08:13:31.072Z,11.20
2019-03-17T08:16:12.108Z,11.20
2019-03-17T08:18:53.843Z,11.20
2019-03-17T08:21:34.643Z,11.20
2019-03-17T08:24:15.283Z,11.10
2019-03-17T08:26:56.504Z,11.00
2019-03-17T08:29:37.191Z,11.10
2019-03-17T08:32:18.445Z,11.10
2019-03-17T08:34:59.183Z,11.20
2019-03-17T08:37:39.852Z,11.20
2019-03-17T08:40:20.530Z,11.30
2019-03-17T08:43:01.732Z,11.50
2019-03-17T08:45:42.306Z,11.80
2019-03-17T08:48:22.899Z,12.10
2019-03-17T08:51:04.129Z,12.10
2019-03-17T08:53:45.033Z,12.20
2019-03-17T08:56:25.896Z,12.00
2019-03-17T08:59:07.216Z,11.90
2019-03-17T09:01:48.183Z,11.90
2019-03-17T09:04:29.163Z,12.00
2019-03-17T09:07:10.103Z,11.90
2019-03-17T09:09:50.751Z,11.80
2019-03-17T09:12:31.299Z,11.50
2019-03-17T09:15:11.870Z,11.50
2019-03-17T09:17:52.699Z,11.40
2019-03-17T09:20:33.370Z,11.40
2019-03-17T09:23:14.037Z,11.50
2019-03-17T09:25:54.980Z,11.40
2019-03-17T09:28:35.460Z,11.50
2019-03-17T09:31:16.898Z,11.30
2019-03-17T09:33:57.381Z,11.30
2019-03-17T09:39:21.736Z,11.30
2019-03-17T09:42:02.571Z,11.30
2019-03-17T09:44:43.442Z,11.30
2019-03-17T09:47:24.687Z,11.40
2019-03-17T09:50:05.204Z,11.40
2019-03-17T09:55:45.353Z,11.60
2019-03-17T09:58:26.723Z,11.50
2019-03-17T10:01:07.287Z,11.40
2019-03-17T10:03:48.211Z,11.30
2019-03-17T10:06:29.000Z,11.30
2019-03-17T10:09:10.224Z,11.30
2019-03-17T10:11:39.621Z,11.20
2019-03-17T10:14:28.005Z,11.20
2019-03-17T10:17:16.229Z,11.10
2019-03-17T10:20:04.629Z,11.00
2019-03-17T10:22:45.876Z,11.00
2019-03-17T10:25:27.181Z,11.00
2019-03-17T10:28:08.170Z,11.00
2019-03-17T10:30:48.900Z,10.90
2019-03-17T10:33:29.865Z,10.80
2019-03-17T10:36:10.884Z,10.80
2019-03-17T10:38:52.267Z,10.80
2019-03-17T10:41:33.509Z,10.80
2019-03-17T10:44:14.188Z,10.50
2019-03-17T10:46:54.688Z,10.30
2019-03-17T10:49:35.868Z,10.30
2019-03-17T10:52:16.593Z,10.30
2019-03-17T10:54:58.212Z,10.30
2019-03-17T10:57:39.533Z,10.20
2019-03-17T11:00:20.320Z,10.10
2019-03-17T11:03:02.010Z,10.10
2019-03-17T11:05:42.432Z,10.00
2019-03-17T11:08:23.120Z,9.90
2019-03-17T11:11:03.935Z,9.80
2019-03-17T11:13:45.268Z,9.70
2019-03-17T11:16:26.191Z,9.80
2019-03-17T11:19:06.988Z,9.80
2019-03-17T11:21:46.271Z,9.80
2019-03-17T11:24:34.483Z,9.90
2019-03-17T11:27:23.531Z,9.90
2019-03-17T11:30:11.857Z,9.70
2019-03-17T11:33:00.081Z,9.80
2019-03-17T11:35:48.285Z,9.70
2019-03-17T11:38:36.508Z,9.80
2019-03-17T11:41:24.801Z,9.80
2019-03-17T11:44:13.304Z,9.80
2019-03-17T11:47:01.587Z,10.00
2019-03-17T11:49:49.787Z,10.00
2019-03-17T11:52:38.020Z,10.00
2019-03-17T11:55:26.223Z,9.90
2019-03-17T11:58:14.447Z,9.90
2019-03-17T12:01:02.716Z,9.50
2019-03-17T12:03:50.931Z,9.20
2019-03-17T12:06:39.163Z,9.00
2019-03-17T12:09:29.258Z,8.70
2019-03-17T12:12:17.892Z,8.70
2019-03-17T12:15:06.759Z,8.60
2019-03-17T12:17:55.249Z,8.50
2019-03-17T12:20:43.708Z,8.50
2019-03-17T12:23:24.740Z,8.50
2019-03-17T12:25:55.056Z,8.40
2019-03-17T12:28:44.376Z,8.40
2019-03-17T12:31:32.616Z,8.50
2019-03-17T12:34:28.210Z,8.60
2019-03-17T12:37:10.764Z,8.50
2019-03-17T12:40:02.695Z,8.40
2019-03-17T12:42:49.191Z,8.30
2019-03-17T12:45:37.411Z,8.20
2019-03-17T12:48:26.523Z,8.20
2019-03-17T12:51:14.744Z,8.00
2019-03-17T12:54:02.952Z,8.00
2019-03-17T12:56:51.164Z,8.00
2019-03-17T12:59:39.636Z,8.10
2019-03-17T13:02:28.091Z,8.10
2019-03-17T13:05:16.318Z,8.20
2019-03-17T13:08:04.516Z,8.30
2019-03-17T13:10:52.992Z,8.30
2019-03-17T13:13:41.452Z,8.40
2019-03-17T13:16:29.932Z,8.40
2019-03-17T13:19:18.388Z,8.50
2019-03-17T13:21:58.900Z,8.50
2019-03-17T13:24:39.536Z,8.50
2019-03-17T13:27:20.327Z,8.50
2019-03-17T13:30:01.643Z,8.30
2019-03-17T13:32:42.839Z,8.30
2019-03-17T13:35:12.252Z,8.30
2019-03-17T13:37:41.366Z,8.30
2019-03-17T13:40:30.346Z,8.20
2019-03-17T13:43:18.984Z,8.30
2019-03-17T13:46:07.196Z,8.30
2019-03-17T13:48:36.576Z,8.20
2019-03-17T13:51:24.788Z,8.20
2019-03-17T13:54:12.994Z,8.20
2019-03-17T13:57:01.203Z,8.20
2019-03-17T13:59:49.396Z,8.30
2019-03-17T14:02:37.879Z,8.40
2019-03-17T14:05:26.075Z,8.30
2019-03-17T14:08:14.283Z,8.30
2019-03-17T14:11:02.503Z,8.30
2019-03-17T14:13:50.989Z,8.30
2019-03-17T14:16:39.188Z,8.50
2019-03-17T14:19:27.431Z,8.50
2019-03-17T14:22:15.659Z,8.50
2019-03-17T14:24:44.807Z,8.50
2019-03-17T14:27:33.011Z,8.40
2019-03-17T14:30:21.231Z,8.40
2019-03-17T14:33:09.419Z,8.40
2019-03-17T14:35:57.910Z,8.40
2019-03-17T14:38:46.217Z,8.40
2019-03-17T14:41:34.805Z,8.50
2019-03-17T14:44:23.015Z,8.50
2019-03-17T14:47:11.292Z,8.70
2019-03-17T14:49:59.769Z,8.80
2019-03-17T14:52:48.000Z,8.90
2019-03-17T14:55:36.720Z,9.00
2019-03-17T14:58:25.206Z,9.00
2019-03-17T15:01:13.415Z,9.10
2019-03-17T15:04:01.648Z,9.20
2019-03-17T15:06:50.423Z,9.30
2019-03-17T15:09:38.609Z,9.40
2019-03-17T15:12:26.832Z,9.40
2019-03-17T15:15:15.336Z,9.30
2019-03-17T15:18:03.551Z,9.30
2019-03-17T15:20:51.764Z,9.50
2019-03-17T15:23:32.592Z,9.60
2019-03-17T15:26:13.547Z,9.40
2019-03-17T15:28:54.707Z,9.30
2019-03-17T15:31:35.816Z,9.40
2019-03-17T15:34:16.877Z,9.40
2019-03-17T15:36:58.180Z,9.50
2019-03-17T15:39:39.421Z,9.50
2019-03-17T15:42:20.266Z,9.50
2019-03-17T15:45:00.798Z,9.40
2019-03-17T15:47:41.471Z,9.40
2019-03-17T15:50:11.704Z,9.40
2019-03-17T15:53:00.232Z,9.20
2019-03-17T15:55:48.436Z,9.00
2019-03-17T15:58:36.656Z,8.90
2019-03-17T16:01:06.081Z,8.80
2019-03-17T16:03:54.300Z,8.80
2019-03-17T16:06:42.787Z,8.80
2019-03-17T16:09:31.260Z,8.90
2019-03-17T16:12:19.490Z,9.00
2019-03-17T16:15:08.291Z,9.00
2019-03-17T16:17:56.760Z,9.10
2019-03-17T16:20:45.209Z,9.10
2019-03-17T16:23:33.704Z,9.20
2019-03-17T16:26:21.963Z,9.20
2019-03-17T16:29:10.190Z,9.20
2019-03-17T16:31:51.328Z,9.20
2019-03-17T16:34:32.723Z,9.20
2019-03-17T16:37:02.114Z,9.30
2019-03-17T16:39:31.243Z,9.30
2019-03-17T16:42:01.200Z,9.30
2019-03-17T16:44:31.440Z,9.20
2019-03-17T16:47:00.606Z,9.20
2019-03-17T16:49:29.750Z,9.10
2019-03-17T16:51:59.167Z,9.00
2019-03-17T16:54:28.361Z,9.00
2019-03-17T16:56:57.814Z,8.90
2019-03-17T16:59:27.076Z,8.80
2019-03-17T17:01:57.283Z,8.80
2019-03-17T17:04:30.842Z,8.70
2019-03-17T17:06:59.955Z,8.70
2019-03-17T17:09:29.387Z,8.60
2019-03-17T17:11:58.519Z,8.70
2019-03-17T17:14:27.728Z,8.60
2019-03-17T17:16:57.209Z,8.50
2019-03-17T17:19:26.849Z,8.50
2019-03-17T17:21:58.774Z,8.40
2019-03-17T17:24:28.859Z,8.50
2019-03-17T17:26:58.084Z,8.50
2019-03-17T17:29:27.466Z,8.50
2019-03-17T17:31:56.568Z,8.50
2019-03-17T17:34:25.792Z,8.40
2019-03-17T17:36:55.266Z,8.30
2019-03-17T17:39:24.399Z,8.20
2019-03-17T17:41:53.780Z,8.10
2019-03-17T17:44:22.929Z,8.10
2019-03-17T17:46:52.026Z,8.10
2019-03-17T17:49:21.492Z,8.10
2019-03-17T17:51:50.598Z,8.00
2019-03-17T17:54:19.998Z,8.10
2019-03-17T17:56:50.659Z,7.90
2019-03-17T17:59:20.199Z,8.00
2019-03-17T18:01:50.124Z,8.00
2019-03-17T18:04:19.552Z,7.90
2019-03-17T18:06:48.690Z,8.00
2019-03-17T18:09:18.112Z,7.90
2019-03-17T18:11:47.304Z,7.90
2019-03-17T18:14:16.504Z,8.00
2019-03-17T18:16:45.975Z,7.90
2019-03-17T18:19:15.105Z,7.90
2019-03-17T18:21:44.236Z,7.80
2019-03-17T18:24:13.369Z,7.70
2019-03-17T18:26:42.507Z,7.70
2019-03-17T18:29:11.998Z,7.60
2019-03-17T18:31:41.211Z,7.60
2019-03-17T18:34:10.704Z,7.60
2019-03-17T18:36:39.951Z,7.60
2019-03-17T18:39:09.350Z,7.60
2019-03-17T18:41:38.815Z,7.60
2019-03-17T18:44:08.312Z,7.60
2019-03-17T18:46:37.425Z,7.70
2019-03-17T18:49:06.999Z,7.60
2019-03-17T18:51:36.738Z,7.50
2019-03-17T18:54:06.306Z,7.40
2019-03-17T18:56:35.480Z,7.30
2019-03-17T18:59:04.661Z,7.30
2019-03-17T19:01:34.403Z,7.30
2019-03-17T19:04:03.615Z,7.30
2019-03-17T19:06:32.840Z,7.30
2019-03-17T19:09:02.114Z,7.30
2019-03-17T19:11:31.302Z,7.30
2019-03-17T19:14:01.259Z,7.10
2019-03-17T19:16:30.515Z,7.10
2019-03-17T19:19:00.143Z,7.20
2019-03-17T19:21:29.736Z,7.20
2019-03-17T19:23:58.936Z,7.20
2019-03-17T19:26:28.208Z,7.20
2019-03-17T19:28:57.319Z,7.20
2019-03-17T19:31:26.742Z,7.20
2019-03-17T19:33:56.684Z,7.20
2019-03-17T19:36:25.778Z,7.10
2019-03-17T19:38:54.886Z,7.00
2019-03-17T19:41:24.005Z,7.00
2019-03-17T19:43:53.240Z,6.90
2019-03-17T19:46:22.676Z,6.80
2019-03-17T19:48:51.851Z,6.80
2019-03-17T19:51:20.955Z,6.70
2019-03-17T19:53:50.396Z,6.60
2019-03-17T19:56:20.191Z,6.60
2019-03-17T19:58:49.647Z,6.60
2019-03-17T20:01:18.807Z,6.60
2019-03-17T20:03:48.332Z,6.50
2019-03-17T20:06:17.774Z,6.40
2019-03-17T20:08:46.987Z,6.40
2019-03-17T20:11:16.238Z,6.20
2019-03-17T20:13:45.551Z,6.30
2019-03-17T20:16:14.744Z,6.30
2019-03-17T20:18:44.106Z,6.30
2019-03-17T20:21:13.746Z,6.30
2019-03-17T20:23:42.894Z,6.20
2019-03-17T20:26:12.314Z,6.20
2019-03-17T20:28:42.223Z,6.10
2019-03-17T20:31:11.533Z,6.20
2019-03-17T20:33:40.813Z,6.20
2019-03-17T20:36:10.305Z,6.10
2019-03-17T20:38:39.747Z,6.10
2019-03-17T20:41:08.912Z,6.00
2019-03-17T20:43:38.428Z,6.00
2019-03-17T20:46:07.650Z,6.00
2019-03-17T20:48:37.222Z,6.00
2019-03-17T20:51:06.342Z,6.00
2019-03-17T20:53:35.453Z,6.00
2019-03-17T20:56:04.662Z,5.90
2019-03-17T20:58:34.524Z,6.10
2019-03-17T21:01:03.640Z,5.50
2019-03-17T21:03:33.136Z,4.90
2019-03-17T21:06:02.272Z,4.90
2019-03-17T21:08:31.528Z,5.00
2019-03-17T21:11:00.880Z,4.90
2019-03-17T21:13:30.063Z,4.90
2019-03-17T21:15:59.284Z,5.00
2019-03-17T21:18:28.448Z,5.00
2019-03-17T21:20:57.579Z,4.90
2019-03-17T21:23:26.719Z,5.00
2019-03-17T21:25:56.131Z,5.10
2019-03-17T21:28:27.649Z,5.20
2019-03-17T21:30:56.765Z,5.10
2019-03-17T21:33:26.316Z,4.90
2019-03-17T21:35:55.718Z,4.90
2019-03-17T21:38:24.806Z,4.90
2019-03-17T21:41:06.531Z,4.90
2019-03-17T21:43:24.716Z,4.90
2019-03-17T21:45:53.835Z,4.60
2019-03-17T21:48:23.497Z,4.50
2019-03-17T21:50:52.890Z,4.50
2019-03-17T21:53:21.987Z,4.60
2019-03-17T21:55:54.001Z,4.60
2019-03-17T21:58:21.930Z,4.70
2019-03-17T22:00:51.070Z,4.70
2019-03-17T22:03:20.862Z,4.70
2019-03-17T22:05:49.948Z,4.90
2019-03-17T22:08:19.027Z,5.00
2019-03-17T22:10:48.170Z,4.90
2019-03-17T22:13:17.590Z,4.90
2019-03-17T22:15:47.023Z,4.90
2019-03-17T22:18:16.104Z,4.90
2019-03-17T22:20:45.504Z,4.80
2019-03-17T22:23:14.877Z,4.70
2019-03-17T22:25:44.335Z,4.60
2019-03-17T22:28:13.674Z,4.50
2019-03-17T22:30:42.806Z,4.40
2019-03-17T22:33:11.975Z,4.40
2019-03-17T22:35:41.444Z,4.30
2019-03-17T22:38:10.523Z,4.30
2019-03-17T22:40:58.989Z,4.30
2019-03-17T22:43:47.435Z,4.40
2019-03-17T22:46:35.887Z,4.40
2019-03-17T22:49:05.380Z,4.40
2019-03-17T22:51:53.599Z,4.50
2019-03-17T22:54:41.804Z,4.50
2019-03-17T22:57:30.035Z,4.50
2019-03-17T23:03:15.500Z,4.50
2019-03-17T23:06:03.922Z,4.60
2019-03-17T23:08:52.391Z,4.60
2019-03-17T23:11:40.618Z,4.70
2019-03-17T23:14:36.610Z,4.60
2019-03-17T23:17:19.412Z,4.60
2019-03-17T23:23:02.792Z,4.50
2019-03-17T23:25:51.309Z,4.30
2019-03-17T23:28:40.055Z,4.30
2019-03-17T23:31:28.451Z,4.40
2019-03-17T23:34:16.976Z,4.30
2019-03-17T23:37:05.170Z,4.20
2019-03-17T23:39:53.395Z,4.20
2019-03-17T23:42:41.666Z,4.10
2019-03-17T23:45:29.892Z,4.20
2019-03-17T23:47:59.007Z,4.20
2019-03-17T23:50:47.505Z,4.20
2019-03-17T23:53:16.715Z,4.10
2019-03-17T23:56:04.917Z,4.10
2019-03-17T23:58:53.423Z,4.00
